Terminal Aerodrome Forecast
Issued by NWS

Home | Current Version | Previous Version | Text Only | Print | Product List | Glossary On
Versions: 1 2 3 4 5 6 7 8 9 10 11 12 13 14
000
FTUS42 KMLB 162300
TAFISM
TAF
KISM 162333Z 1700/1724 29004KT P6SM SCT100 OVC150
     FM171400 28008KT P6SM VCSH FEW020 SCT120 BKN250
     FM171900 28009KT P6SM VCTS SCT040CB BKN100
      AMD NOT SKED 1702/1711=

USA.gov is the U.S. government's official web portal to all federal, state and local government web resources and services.